Time;durP1;ratioP1;P1;durP2;ratioP2;P2;SDS_P1;SDS_P2;PMS_P1;PMS_P2;Temp;Humidity;BMP_temperature;BMP_pressure;BME280_temperature;BME280_humidity;BME280_pressure;Samples;Min_cycle;Max_cycle;Signal;HPM_P1;HPM_P2
2023/04/04 00:01:32;;;;;;;3.72;2.00;;;14.80;75.90;;;;;;10939894;32;20026;-77
2023/04/04 00:07:34;;;;;;;4.40;1.20;;;14.70;75.90;;;;;;10930281;32;20042;-76
2023/04/04 00:13:37;;;;;;;3.03;1.62;;;14.70;75.30;;;;;;10926057;32;20337;-76
2023/04/04 00:19:40;;;;;;;2.05;1.80;;;14.50;74.60;;;;;;10941546;32;20054;-76
2023/04/04 00:25:42;;;;;;;2.03;1.50;;;14.30;74.50;;;;;;10942064;32;20015;-77
2023/04/04 00:31:45;;;;;;;2.42;1.70;;;14.00;75.20;;;;;;10942628;32;20057;-77
2023/04/04 00:37:47;;;;;;;4.97;2.10;;;13.80;75.60;;;;;;10942413;32;20007;-77
2023/04/04 00:43:49;;;;;;;3.10;2.17;;;13.50;76.00;;;;;;10942099;32;20390;-77
2023/04/04 00:49:51;;;;;;;0.85;0.85;;;13.60;75.50;;;;;;10930356;32;20031;-77
2023/04/04 00:55:53;;;;;;;4.20;2.17;;;13.60;75.50;;;;;;10949837;32;20303;-76
2023/04/04 01:01:56;;;;;;;3.95;2.17;;;13.60;75.40;;;;;;10949523;32;20046;-77
2023/04/04 01:08:00;;;;;;;4.15;2.00;;;13.70;74.90;;;;;;10948120;32;20397;-77
2023/04/04 01:14:03;;;;;;;2.87;1.87;;;13.70;74.60;;;;;;10947967;32;20023;-77
2023/04/04 01:20:19;;;;;;;7.78;2.05;;;13.60;74.90;;;;;;10948171;32;20023;-77
2023/04/04 01:26:22;;;;;;;3.28;2.00;;;13.50;74.50;;;;;;10947749;32;20031;-77
2023/04/04 01:32:49;;;;;;;2.20;1.90;;;13.50;74.70;;;;;;10934533;32;20059;-77
2023/04/04 01:39:13;;;;;;;2.97;1.70;;;13.50;74.60;;;;;;10948271;32;20447;-77
2023/04/04 01:45:15;;;;;;;3.87;2.45;;;13.40;74.80;;;;;;10935277;32;20023;-77
2023/04/04 01:51:21;;;;;;;4.85;3.08;;;13.30;74.90;;;;;;10947549;32;20014;-76
2023/04/04 01:57:23;;;;;;;1.27;1.10;;;13.30;74.70;;;;;;10947390;32;20024;-77
2023/04/04 02:03:25;;;;;;;2.12;1.48;;;13.00;74.80;;;;;;10946629;32;20045;-77
2023/04/04 02:09:27;;;;;;;2.35;1.87;;;13.00;75.30;;;;;;10933168;32;20023;-77
2023/04/04 02:15:32;;;;;;;2.85;1.48;;;12.90;75.50;;;;;;10945901;32;20023;-77
2023/04/04 02:21:34;;;;;;;2.25;1.70;;;12.90;75.30;;;;;;10945708;32;20019;-77
2023/04/04 02:27:36;;;;;;;3.55;2.35;;;12.80;75.40;;;;;;10931856;32;20046;-77
2023/04/04 02:33:38;;;;;;;1.75;1.40;;;12.80;75.30;;;;;;10946714;32;20361;-76
2023/04/04 02:39:40;;;;;;;2.12;1.92;;;12.70;74.80;;;;;;10945166;32;20053;-77
2023/04/04 02:45:42;;;;;;;2.90;1.65;;;12.60;75.20;;;;;;10946130;32;20031;-76
2023/04/04 02:51:45;;;;;;;3.45;2.30;;;12.70;75.10;;;;;;10945259;32;20405;-77
2023/04/04 02:57:51;;;;;;;4.55;2.47;;;12.50;74.70;;;;;;10930496;32;20035;-76
2023/04/04 03:03:54;;;;;;;1.87;1.37;;;12.50;75.10;;;;;;10930789;32;20401;-76
2023/04/04 03:09:57;;;;;;;1.58;1.23;;;12.50;74.90;;;;;;10944053;32;20024;-76
2023/04/04 03:16:03;;;;;;;2.25;1.92;;;12.40;74.70;;;;;;10943421;32;20022;-76
2023/04/04 03:22:05;;;;;;;2.20;2.00;;;12.50;74.60;;;;;;10943653;32;20062;-76
2023/04/04 03:28:09;;;;;;;2.40;2.10;;;12.50;75.10;;;;;;10939842;32;20022;-77
2023/04/04 03:34:12;;;;;;;2.97;2.17;;;12.50;74.70;;;;;;10940867;32;20112;-76
2023/04/04 03:40:14;;;;;;;1.92;1.50;;;12.50;74.10;;;;;;10939397;32;20348;-76
2023/04/04 03:46:17;;;;;;;3.12;1.65;;;12.50;74.40;;;;;;10943295;32;20042;-77
2023/04/04 03:52:19;;;;;;;2.85;2.03;;;12.40;73.30;;;;;;10926836;32;20015;-76
2023/04/04 03:58:21;;;;;;;2.92;1.75;;;12.50;72.50;;;;;;10943344;32;20045;-76
2023/04/04 04:04:25;;;;;;;1.90;1.73;;;12.60;72.20;;;;;;10941556;32;20451;-76
2023/04/04 04:10:27;;;;;;;1.55;1.45;;;12.70;72.90;;;;;;10915003;32;20043;-76
2023/04/04 04:16:30;;;;;;;2.60;1.98;;;12.80;72.60;;;;;;10939499;32;20023;-74
2023/04/04 04:22:33;;;;;;;2.50;2.25;;;12.70;72.40;;;;;;10942768;32;20049;-74
2023/04/04 04:28:36;;;;;;;2.10;1.40;;;12.70;72.00;;;;;;10940986;32;20049;-74
2023/04/04 04:34:39;;;;;;;2.28;2.08;;;12.60;71.70;;;;;;10941952;32;20027;-73
2023/04/04 04:40:42;;;;;;;2.12;1.80;;;12.30;71.80;;;;;;10942417;32;20049;-74
2023/04/04 04:46:46;;;;;;;2.25;2.05;;;12.20;71.40;;;;;;10941771;32;20085;-74
2023/04/04 04:52:51;;;;;;;3.25;2.60;;;12.20;71.20;;;;;;10941322;32;20431;-74
2023/04/04 04:58:53;;;;;;;2.70;1.60;;;12.20;71.40;;;;;;10929084;32;20411;-73
2023/04/04 05:04:56;;;;;;;2.75;2.20;;;12.10;71.00;;;;;;10940797;32;20200;-73
2023/04/04 05:10:59;;;;;;;2.78;1.85;;;12.00;70.90;;;;;;10940763;32;20023;-73
2023/04/04 05:17:02;;;;;;;3.72;2.42;;;12.00;71.10;;;;;;10940535;32;20015;-73
2023/04/04 05:23:05;;;;;;;2.20;2.00;;;12.00;71.40;;;;;;10939526;32;20027;-76
2023/04/04 05:29:08;;;;;;;2.42;2.00;;;12.20;71.50;;;;;;10941584;32;20332;-76
2023/04/04 05:35:13;;;;;;;3.17;2.30;;;12.30;71.00;;;;;;10942259;32;20369;-76
2023/04/04 05:41:15;;;;;;;5.30;3.37;;;12.40;71.50;;;;;;10918451;32;20034;-77
2023/04/04 05:47:20;;;;;;;2.85;1.98;;;12.50;72.60;;;;;;10946930;32;20027;-76
2023/04/04 05:53:23;;;;;;;2.80;1.92;;;12.40;73.90;;;;;;10943884;32;20024;-76
2023/04/04 05:59:27;;;;;;;2.62;1.95;;;12.40;74.70;;;;;;10943617;32;20070;-76
2023/04/04 06:05:30;;;;;;;2.30;2.05;;;12.60;74.00;;;;;;10940917;32;20317;-76
2023/04/04 06:11:32;;;;;;;3.03;2.17;;;12.70;74.60;;;;;;10911318;32;20400;-76
2023/04/04 06:17:36;;;;;;;2.28;2.08;;;12.80;74.20;;;;;;10925501;32;20054;-77
2023/04/04 06:23:39;;;;;;;1.62;1.52;;;12.70;74.90;;;;;;10917676;32;20065;-77
2023/04/04 06:29:42;;;;;;;3.12;1.98;;;12.70;74.90;;;;;;10900723;32;20022;-77
2023/04/04 06:35:46;;;;;;;3.87;2.55;;;12.80;75.50;;;;;;10903010;32;20154;-77
2023/04/04 06:41:49;;;;;;;2.35;1.75;;;13.00;75.60;;;;;;10889703;32;20031;-77
2023/04/04 06:47:57;;;;;;;3.05;2.10;;;13.00;76.10;;;;;;10904585;32;20524;-77
2023/04/04 06:54:00;;;;;;;5.62;2.67;;;12.90;76.30;;;;;;10935685;32;20027;-77
2023/04/04 07:00:03;;;;;;;2.78;1.85;;;12.60;75.70;;;;;;10938499;32;20030;-75
2023/04/04 07:06:05;;;;;;;6.35;2.45;;;12.50;75.70;;;;;;10940701;32;20092;-74
2023/04/04 07:12:07;;;;;;;6.37;2.30;;;12.30;76.10;;;;;;10940063;32;20408;-75
2023/04/04 07:18:10;;;;;;;7.12;2.47;;;12.20;76.30;;;;;;10938148;32;20027;-74
2023/04/04 07:24:12;;;;;;;5.30;2.55;;;12.30;72.70;;;;;;10939243;32;20026;-74
2023/04/04 07:30:14;;;;;;;2.92;1.90;;;12.00;70.50;;;;;;10892517;32;20043;-74
2023/04/04 07:36:16;;;;;;;3.30;1.87;;;11.80;71.50;;;;;;10901982;32;20063;-73
2023/04/04 07:42:22;;;;;;;2.08;1.77;;;11.70;70.60;;;;;;10901145;32;20388;-74
2023/04/04 07:48:24;;;;;;;3.78;2.22;;;11.70;71.00;;;;;;10932358;32;20057;-73
2023/04/04 07:54:26;;;;;;;8.25;2.83;;;11.80;71.20;;;;;;10927127;27;20421;-74
2023/04/04 08:00:28;;;;;;;10.60;2.70;;;11.80;69.60;;;;;;10935238;32;20045;-73
2023/04/04 08:06:32;;;;;;;13.13;2.90;;;11.60;68.90;;;;;;10937743;32;20019;-74
2023/04/04 08:12:34;;;;;;;7.22;1.67;;;11.50;67.10;;;;;;10920796;32;20037;-74
2023/04/04 08:18:36;;;;;;;3.87;1.92;;;11.50;68.70;;;;;;10937927;32;20027;-74
2023/04/04 08:24:38;;;;;;;2.62;1.73;;;11.70;68.50;;;;;;10937597;32;20027;-74
2023/04/04 08:30:41;;;;;;;9.07;3.05;;;11.90;70.70;;;;;;10934203;32;20031;-76
2023/04/04 08:36:43;;;;;;;13.95;2.87;;;11.80;67.80;;;;;;10923198;32;20031;-76
2023/04/04 08:42:47;;;;;;;5.35;2.08;;;11.90;69.10;;;;;;10924742;32;20054;-76
2023/04/04 08:48:51;;;;;;;4.68;1.58;;;12.00;69.20;;;;;;10937188;32;20019;-77
2023/04/04 08:54:55;;;;;;;4.15;1.90;;;12.00;69.80;;;;;;10936696;32;20416;-77
2023/04/04 09:00:57;;;;;;;4.82;2.03;;;12.10;69.60;;;;;;10933141;32;20634;-77
2023/04/04 09:07:04;;;;;;;10.52;2.65;;;12.00;67.80;;;;;;10936604;32;20395;-76
2023/04/04 09:13:06;;;;;;;3.22;1.67;;;12.00;67.80;;;;;;10940612;32;20486;-74
2023/04/04 09:19:08;;;;;;;4.07;2.50;;;12.00;69.20;;;;;;10917210;32;20404;-74
2023/04/04 09:25:12;;;;;;;5.25;1.90;;;12.20;72.20;;;;;;10917078;32;20353;-74
2023/04/04 09:31:16;;;;;;;3.78;1.90;;;12.20;70.60;;;;;;10929564;32;20038;-74
2023/04/04 09:37:18;;;;;;;1.12;1.05;;;12.70;73.90;;;;;;10932114;32;20023;-74
2023/04/04 09:43:23;;;;;;;3.35;1.62;;;12.90;73.90;;;;;;10944897;32;20049;-75
2023/04/04 09:49:26;;;;;;;1.73;1.62;;;12.80;72.70;;;;;;10948409;32;20026;-74
2023/04/04 09:55:37;;;;;;;6.15;2.33;;;12.80;73.80;;;;;;10947807;32;20038;-74
2023/04/04 10:01:40;;;;;;;6.47;1.67;;;12.80;72.60;;;;;;10947937;32;20023;-74
2023/04/04 10:07:43;;;;;;;6.05;3.00;;;13.00;72.50;;;;;;10946579;32;20352;-74
2023/04/04 10:13:46;;;;;;;8.00;1.83;;;12.90;68.20;;;;;;10947445;32;20045;-74
2023/04/04 10:19:49;;;;;;;2.72;1.83;;;13.00;67.20;;;;;;10932395;32;20031;-77
2023/04/04 10:25:53;;;;;;;3.08;1.80;;;13.30;69.90;;;;;;10931314;32;20046;-77
2023/04/04 10:32:04;;;;;;;3.92;2.25;;;13.50;68.20;;;;;;10932045;32;20026;-75
2023/04/04 10:38:07;;;;;;;3.67;2.40;;;13.60;67.20;;;;;;10946725;32;20041;-74
2023/04/04 10:44:18;;;;;;;3.50;1.30;;;13.70;69.00;;;;;;10933312;32;20023;-75
2023/04/04 10:50:20;;;;;;;7.87;2.45;;;14.00;70.90;;;;;;10944188;32;20024;-75
2023/04/04 10:56:23;;;;;;;5.28;2.35;;;14.10;70.70;;;;;;10933211;32;20019;-74
2023/04/04 11:02:44;;;;;;;2.50;1.83;;;14.40;72.30;;;;;;10945817;32;20038;-74
2023/04/04 11:08:53;;;;;;;3.10;2.12;;;14.50;66.50;;;;;;10946325;32;20344;-75
2023/04/04 11:15:06;;;;;;;4.47;2.10;;;14.60;68.50;;;;;;10945903;32;20344;-75
2023/04/04 11:21:20;;;;;;;3.22;1.80;;;14.70;68.00;;;;;;10945020;32;20388;-75
2023/04/04 11:27:24;;;;;;;1.75;1.35;;;15.20;70.40;;;;;;10929827;32;20039;-75
2023/04/04 11:33:27;;;;;;;6.95;3.12;;;15.60;68.30;;;;;;10928787;32;20034;-75
2023/04/04 11:39:30;;;;;;;3.47;2.47;;;15.80;66.70;;;;;;10944346;32;20401;-74
2023/04/04 11:45:35;;;;;;;2.90;2.30;;;15.70;67.90;;;;;;10928716;32;20026;-75
2023/04/04 11:51:41;;;;;;;2.08;1.85;;;15.90;66.50;;;;;;10943067;32;20046;-75
2023/04/04 11:57:45;;;;;;;2.05;1.62;;;16.10;64.60;;;;;;10943405;32;20016;-75
2023/04/04 12:03:48;;;;;;;3.47;2.50;;;16.20;63.00;;;;;;10928257;32;20135;-74
2023/04/04 12:09:51;;;;;;;2.80;2.25;;;16.10;61.00;;;;;;10942886;32;20018;-75
2023/04/04 12:15:55;;;;;;;2.75;1.70;;;15.90;64.30;;;;;;10943339;32;20317;-75
2023/04/04 12:21:57;;;;;;;3.90;2.15;;;16.20;63.60;;;;;;10942475;32;20059;-75
2023/04/04 12:28:02;;;;;;;2.97;2.28;;;16.50;63.50;;;;;;10906068;32;20031;-76
2023/04/04 12:34:04;;;;;;;1.95;1.55;;;16.50;61.70;;;;;;10904233;32;20023;-75
2023/04/04 12:40:10;;;;;;;5.78;2.75;;;16.40;61.50;;;;;;10904609;32;20018;-74
2023/04/04 12:46:12;;;;;;;1.70;1.40;;;16.50;64.90;;;;;;10906127;32;20019;-74
2023/04/04 12:52:20;;;;;;;4.80;3.25;;;16.50;63.80;;;;;;10907400;32;20016;-75
2023/04/04 12:58:24;;;;;;;3.15;2.22;;;16.30;61.80;;;;;;10913021;32;20348;-75
2023/04/04 13:04:27;;;;;;;5.43;3.22;;;16.10;64.00;;;;;;10912913;32;20015;-76
2023/04/04 13:10:29;;;;;;;6.32;3.47;;;16.00;62.10;;;;;;10911500;32;20032;-77
2023/04/04 13:16:36;;;;;;;3.30;2.35;;;16.10;64.00;;;;;;10880881;32;20023;-74
2023/04/04 13:22:39;;;;;;;3.92;2.08;;;16.20;61.60;;;;;;10906114;32;20435;-74
2023/04/04 13:28:41;;;;;;;6.85;3.45;;;16.30;61.20;;;;;;10883951;32;20023;-74
2023/04/04 13:34:43;;;;;;;5.62;2.95;;;16.20;61.70;;;;;;10896480;32;20054;-75
2023/04/04 13:40:46;;;;;;;3.42;2.50;;;16.30;61.00;;;;;;10895681;32;20054;-75
2023/04/04 13:46:48;;;;;;;4.40;1.92;;;16.40;61.20;;;;;;10917735;32;20066;-74
2023/04/04 13:52:52;;;;;;;3.53;2.20;;;16.50;59.60;;;;;;10919755;32;20026;-74
2023/04/04 13:58:54;;;;;;;6.55;3.67;;;16.50;59.40;;;;;;10927538;32;20036;-74
2023/04/04 14:04:56;;;;;;;2.40;1.42;;;16.50;60.40;;;;;;10907249;32;20026;-74
2023/04/04 14:10:58;;;;;;;2.87;2.00;;;16.40;57.90;;;;;;10921493;32;20109;-74
2023/04/04 14:17:00;;;;;;;3.65;1.65;;;16.60;55.80;;;;;;10929020;32;20026;-74
2023/04/04 14:23:25;;;;;;;2.78;1.55;;;16.50;59.00;;;;;;10922858;32;20031;-73
2023/04/04 14:29:27;;;;;;;4.65;2.42;;;16.60;59.00;;;;;;10930008;32;20058;-74
2023/04/04 14:35:30;;;;;;;7.25;2.33;;;16.80;59.00;;;;;;10945550;32;20431;-74
2023/04/04 14:41:32;;;;;;;3.62;1.92;;;17.10;58.70;;;;;;10940960;32;20030;-74
2023/04/04 14:47:35;;;;;;;2.75;2.00;;;17.30;59.70;;;;;;10940245;32;20031;-74
2023/04/04 14:53:38;;;;;;;2.90;1.70;;;17.50;59.00;;;;;;10937396;32;20055;-74
2023/04/04 14:59:41;;;;;;;3.22;2.33;;;17.50;56.90;;;;;;10913021;32;20057;-74
2023/04/04 15:05:43;;;;;;;6.97;2.03;;;17.50;59.20;;;;;;10888954;32;20115;-74
2023/04/04 15:11:45;;;;;;;1.58;1.42;;;17.60;54.10;;;;;;10901525;32;20020;-74
2023/04/04 15:18:27;;;;;;;8.00;2.78;;;17.70;55.10;;;;;;10900256;32;20019;-74
2023/04/04 15:24:37;;;;;;;5.18;2.62;;;18.10;57.30;;;;;;10800189;33;20386;-74
2023/04/04 15:30:39;;;;;;;1.45;1.15;;;18.00;63.60;;;;;;10819553;32;20044;-76
2023/04/04 15:36:43;;;;;;;5.40;2.35;;;17.90;64.30;;;;;;10818623;32;20051;-76
2023/04/04 15:42:50;;;;;;;2.30;1.40;;;18.30;69.10;;;;;;10799676;33;20036;-76
2023/04/04 15:48:54;;;;;;;4.55;1.70;;;18.40;67.70;;;;;;10654355;33;7079378;-75
2023/04/04 15:54:56;;;;;;;2.58;1.30;;;18.90;66.50;;;;;;10817840;27;20111;-75
2023/04/04 16:00:59;;;;;;;3.10;1.60;;;19.30;66.40;;;;;;10700096;33;20087;-76
2023/04/04 16:07:01;;;;;;;5.28;1.60;;;19.70;65.70;;;;;;10707161;33;20028;-76
2023/04/04 16:13:03;;;;;;;4.43;2.35;;;20.30;67.40;;;;;;10711356;33;20021;-76
2023/04/04 16:19:05;;;;;;;3.00;1.70;;;21.00;66.10;;;;;;10684498;33;20406;-76
2023/04/04 16:25:07;;;;;;;4.82;1.73;;;21.60;65.40;;;;;;10687282;33;20028;-76
2023/04/04 16:31:12;;;;;;;2.00;1.40;;;22.10;64.80;;;;;;10714694;33;20406;-76
2023/04/04 16:37:15;;;;;;;2.25;1.30;;;22.40;65.10;;;;;;10696003;33;20033;-75
2023/04/04 16:43:17;;;;;;;2.50;1.62;;;22.80;65.20;;;;;;10696521;33;20055;-76
2023/04/04 16:49:19;;;;;;;2.20;1.60;;;22.80;66.20;;;;;;10710154;32;20033;-76
2023/04/04 16:55:24;;;;;;;1.67;0.82;;;23.00;66.20;;;;;;10715027;33;20021;-76
2023/04/04 17:01:30;;;;;;;2.10;1.23;;;22.90;68.00;;;;;;10711384;33;20055;-74
2023/04/04 17:07:33;;;;;;;3.62;1.73;;;22.20;70.50;;;;;;10713967;33;20372;-76
2023/04/04 17:13:36;;;;;;;1.37;1.00;;;21.60;71.40;;;;;;10709882;32;20070;-76
2023/04/04 17:19:38;;;;;;;4.28;1.45;;;21.30;72.30;;;;;;10709806;33;20056;-76
2023/04/04 17:25:40;;;;;;;4.25;2.15;;;21.20;72.90;;;;;;10712264;33;20032;-76
2023/04/04 17:31:43;;;;;;;9.75;3.47;;;20.20;71.40;;;;;;10715728;33;20557;-76
2023/04/04 17:37:45;;;;;;;4.25;2.53;;;19.00;74.00;;;;;;10720611;33;20425;-76
2023/04/04 17:43:49;;;;;;;6.30;3.97;;;18.20;74.00;;;;;;10720292;33;20338;-76
2023/04/04 17:49:51;;;;;;;9.05;4.40;;;17.70;75.00;;;;;;10717650;32;20048;-76
2023/04/04 17:55:53;;;;;;;8.48;3.45;;;17.20;75.50;;;;;;10719460;33;20051;-76
2023/04/04 18:01:55;;;;;;;9.00;3.60;;;16.90;75.00;;;;;;10719489;33;20033;-76
2023/04/04 18:07:57;;;;;;;4.32;2.80;;;16.60;75.20;;;;;;10719105;33;20017;-76
2023/04/04 18:13:58;;;;;;;6.12;3.83;;;16.50;74.80;;;;;;10719246;33;20194;-76
2023/04/04 18:20:03;;;;;;;6.57;4.12;;;16.30;73.60;;;;;;10728846;33;20032;-76
2023/04/04 18:26:06;;;;;;;6.68;3.83;;;16.10;73.80;;;;;;10712973;33;20055;-76
2023/04/04 18:32:08;;;;;;;6.72;4.25;;;15.80;73.30;;;;;;10719609;33;20522;-76
2023/04/04 18:38:11;;;;;;;9.73;4.95;;;15.60;74.30;;;;;;10714373;32;20383;-76
2023/04/04 18:44:14;;;;;;;8.88;3.62;;;15.30;74.80;;;;;;10714664;33;20044;-76
2023/04/04 18:50:17;;;;;;;6.80;3.90;;;15.20;75.10;;;;;;10693697;32;20407;-76
2023/04/04 18:56:21;;;;;;;3.62;3.10;;;15.00;75.20;;;;;;10682055;33;20021;-76
2023/04/04 19:02:23;;;;;;;5.80;4.20;;;14.90;75.40;;;;;;10681800;33;20026;-76
2023/04/04 19:08:26;;;;;;;6.72;4.45;;;14.80;75.50;;;;;;10680944;33;20021;-74
2023/04/04 19:14:35;;;;;;;5.82;4.12;;;14.90;74.90;;;;;;10681833;33;20453;-74
2023/04/04 19:20:40;;;;;;;9.23;5.20;;;14.90;73.70;;;;;;10681590;33;20371;-74
2023/04/04 19:26:44;;;;;;;5.35;3.50;;;14.90;72.20;;;;;;10680286;33;20013;-74
2023/04/04 19:33:01;;;;;;;11.18;6.12;;;14.80;72.40;;;;;;10681324;33;20029;-74
2023/04/04 19:39:06;;;;;;;11.00;8.10;;;14.70;72.10;;;;;;10681124;33;20047;-73
2023/04/04 19:45:12;;;;;;;30.20;23.08;;;14.60;72.00;;;;;;10680396;33;20060;-74
2023/04/04 19:51:52;;;;;;;20.58;14.27;;;14.60;70.60;;;;;;10680374;33;20388;-74
2023/04/04 19:57:54;;;;;;;12.30;9.35;;;14.50;70.30;;;;;;10679148;33;20044;-73
2023/04/04 20:03:57;;;;;;;12.55;8.30;;;14.40;71.70;;;;;;10679201;33;20304;-74
2023/04/04 20:09:59;;;;;;;9.05;6.57;;;14.30;73.40;;;;;;10680373;33;20080;-74
2023/04/04 20:16:07;;;;;;;10.35;5.90;;;14.20;75.20;;;;;;10679302;33;20025;-74
2023/04/04 20:22:27;;;;;;;10.38;5.80;;;14.20;75.40;;;;;;10675849;33;20460;-74
2023/04/04 20:28:30;;;;;;;11.38;8.40;;;14.20;75.90;;;;;;10677618;33;20029;-73
2023/04/04 20:34:41;;;;;;;10.63;7.78;;;14.10;75.60;;;;;;10678760;33;20054;-73
2023/04/04 20:40:43;;;;;;;13.35;6.35;;;14.00;75.70;;;;;;10676770;33;20030;-76
2023/04/04 20:46:45;;;;;;;26.02;18.52;;;13.90;75.00;;;;;;10710580;33;20029;-76
2023/04/04 20:52:57;;;;;;;13.93;10.00;;;13.50;72.40;;;;;;10711448;33;20043;-76
2023/04/04 20:58:59;;;;;;;12.77;9.18;;;13.10;71.80;;;;;;10704621;33;20065;-76
2023/04/04 21:05:05;;;;;;;11.55;8.38;;;13.00;72.40;;;;;;10687667;33;20056;-76
2023/04/04 21:11:09;;;;;;;9.45;6.28;;;13.20;72.40;;;;;;10684356;33;20049;-76
2023/04/04 21:17:12;;;;;;;8.13;5.65;;;13.30;72.40;;;;;;10718261;33;20029;-76
2023/04/04 21:23:26;;;;;;;6.60;4.53;;;13.30;73.00;;;;;;10719387;33;20040;-74
2023/04/04 21:29:29;;;;;;;6.78;4.65;;;13.30;73.50;;;;;;10720719;33;20075;-76
2023/04/04 21:35:45;;;;;;;5.07;3.30;;;13.10;73.50;;;;;;10720309;33;20025;-74
2023/04/04 21:41:51;;;;;;;6.03;3.95;;;12.70;73.90;;;;;;10719292;33;20051;-76
2023/04/04 21:47:53;;;;;;;3.62;3.28;;;12.50;75.10;;;;;;10716006;33;20051;-77
2023/04/04 21:53:56;;;;;;;4.10;3.25;;;12.70;75.00;;;;;;10718567;33;20021;-76
2023/04/04 21:59:58;;;;;;;3.25;2.58;;;12.80;74.80;;;;;;10715717;33;20351;-77
2023/04/04 22:06:00;;;;;;;6.07;3.97;;;12.80;74.70;;;;;;10716849;33;20059;-76
2023/04/04 22:12:02;;;;;;;4.97;3.22;;;12.80;74.90;;;;;;10718742;33;20052;-76
2023/04/04 22:18:05;;;;;;;3.78;2.72;;;12.80;74.90;;;;;;10718242;33;20022;-76
2023/04/04 22:24:08;;;;;;;7.35;4.60;;;12.70;74.60;;;;;;10717363;33;20021;-77
2023/04/04 22:30:11;;;;;;;7.82;4.75;;;12.60;74.30;;;;;;10715712;33;20331;-77
2023/04/04 22:36:14;;;;;;;5.30;3.95;;;12.60;74.20;;;;;;10716709;33;20029;-77
2023/04/04 22:42:17;;;;;;;7.10;4.70;;;12.30;74.50;;;;;;10717071;33;20052;-77
2023/04/04 22:48:23;;;;;;;16.08;6.05;;;12.30;73.90;;;;;;10716689;33;20021;-77
2023/04/04 22:54:25;;;;;;;7.72;4.70;;;12.50;73.20;;;;;;10716701;33;20025;-76
2023/04/04 23:00:27;;;;;;;8.30;5.97;;;12.50;72.90;;;;;;10717085;33;20051;-73
2023/04/04 23:06:30;;;;;;;10.88;6.85;;;12.40;73.20;;;;;;10716481;33;20044;-73
2023/04/04 23:12:32;;;;;;;12.77;7.25;;;12.40;72.20;;;;;;10701878;33;20332;-73
2023/04/04 23:18:34;;;;;;;7.68;5.07;;;12.40;70.90;;;;;;10715438;33;20213;-73
2023/04/04 23:24:36;;;;;;;8.25;6.35;;;12.20;71.10;;;;;;10716338;33;20028;-73
2023/04/04 23:30:39;;;;;;;11.38;6.30;;;11.90;71.50;;;;;;10711534;33;20052;-73
2023/04/04 23:36:41;;;;;;;6.43;3.62;;;11.60;72.50;;;;;;10716028;33;20033;-73
2023/04/04 23:42:43;;;;;;;5.32;3.58;;;11.50;73.10;;;;;;10715846;33;20140;-73
2023/04/04 23:48:45;;;;;;;5.87;3.75;;;11.60;73.30;;;;;;10714076;33;20039;-73
2023/04/04 23:54:48;;;;;;;5.97;4.32;;;11.60;73.50;;;;;;10934254;27;20031;-73
